sensor_id;sensor_type;location;lat;lon;timestamp;temperature;humidity
6662;DHT22;3367;48.714;8.994;2022-11-10T00:00:33;10.50;99.90
6662;DHT22;3367;48.714;8.994;2022-11-10T00:03:01;10.50;99.90
6662;DHT22;3367;48.714;8.994;2022-11-10T00:05:28;10.50;99.90
6662;DHT22;3367;48.714;8.994;2022-11-10T00:07:54;10.50;99.90
6662;DHT22;3367;48.714;8.994;2022-11-10T00:10:21;10.40;99.90
6662;DHT22;3367;48.714;8.994;2022-11-10T00:12:49;10.40;99.90
6662;DHT22;3367;48.714;8.994;2022-11-10T00:15:18;10.40;99.90
6662;DHT22;3367;48.714;8.994;2022-11-10T00:18:02;10.40;99.90
6662;DHT22;3367;48.714;8.994;2022-11-10T00:20:30;10.30;99.90
6662;DHT22;3367;48.714;8.994;2022-11-10T00:22:56;10.30;99.90
6662;DHT22;3367;48.714;8.994;2022-11-10T00:25:24;10.30;99.90
6662;DHT22;3367;48.714;8.994;2022-11-10T00:27:53;10.30;99.90
6662;DHT22;3367;48.714;8.994;2022-11-10T00:30:19;10.20;99.90
6662;DHT22;3367;48.714;8.994;2022-11-10T00:32:46;10.20;99.90
6662;DHT22;3367;48.714;8.994;2022-11-10T00:35:13;10.20;99.90
6662;DHT22;3367;48.714;8.994;2022-11-10T00:37:40;10.20;99.90
6662;DHT22;3367;48.714;8.994;2022-11-10T00:40:08;10.30;1.00
6662;DHT22;3367;48.714;8.994;2022-11-10T00:42:35;10.30;1.00
6662;DHT22;3367;48.714;8.994;2022-11-10T00:45:04;10.20;1.00
6662;DHT22;3367;48.714;8.994;2022-11-10T00:47:31;10.30;1.00
6662;DHT22;3367;48.714;8.994;2022-11-10T00:49:57;10.20;1.00
6662;DHT22;3367;48.714;8.994;2022-11-10T00:52:24;10.20;1.00
6662;DHT22;3367;48.714;8.994;2022-11-10T00:54:51;10.10;1.00
6662;DHT22;3367;48.714;8.994;2022-11-10T00:57:18;10.10;1.00
6662;DHT22;3367;48.714;8.994;2022-11-10T00:59:44;10.00;1.00
6662;DHT22;3367;48.714;8.994;2022-11-10T01:02:13;10.00;99.90
6662;DHT22;3367;48.714;8.994;2022-11-10T01:04:39;9.80;99.90
6662;DHT22;3367;48.714;8.994;2022-11-10T01:07:06;9.70;99.90
6662;DHT22;3367;48.714;8.994;2022-11-10T01:09:33;9.70;99.90
6662;DHT22;3367;48.714;8.994;2022-11-10T01:12:00;9.70;1.00
6662;DHT22;3367;48.714;8.994;2022-11-10T01:14:26;9.60;1.00
6662;DHT22;3367;48.714;8.994;2022-11-10T01:16:53;9.60;1.00
6662;DHT22;3367;48.714;8.994;2022-11-10T01:19:21;9.60;1.00
6662;DHT22;3367;48.714;8.994;2022-11-10T01:21:49;9.60;1.00
6662;DHT22;3367;48.714;8.994;2022-11-10T01:24:18;9.70;1.00
6662;DHT22;3367;48.714;8.994;2022-11-10T01:26:46;9.70;1.00
6662;DHT22;3367;48.714;8.994;2022-11-10T01:29:13;9.70;1.00
6662;DHT22;3367;48.714;8.994;2022-11-10T01:31:40;9.70;1.00
6662;DHT22;3367;48.714;8.994;2022-11-10T01:34:06;9.60;1.00
6662;DHT22;3367;48.714;8.994;2022-11-10T01:36:35;9.60;1.00
6662;DHT22;3367;48.714;8.994;2022-11-10T01:39:01;9.60;1.00
6662;DHT22;3367;48.714;8.994;2022-11-10T01:41:28;9.60;1.00
6662;DHT22;3367;48.714;8.994;2022-11-10T01:44:13;9.50;1.00
6662;DHT22;3367;48.714;8.994;2022-11-10T01:46:40;9.50;1.00
6662;DHT22;3367;48.714;8.994;2022-11-10T01:49:08;9.50;1.00
6662;DHT22;3367;48.714;8.994;2022-11-10T01:51:38;9.40;1.00
6662;DHT22;3367;48.714;8.994;2022-11-10T01:54:11;9.50;1.00
6662;DHT22;3367;48.714;8.994;2022-11-10T01:56:42;9.50;1.00
6662;DHT22;3367;48.714;8.994;2022-11-10T01:59:12;9.60;1.00
6662;DHT22;3367;48.714;8.994;2022-11-10T02:01:40;9.50;1.00
6662;DHT22;3367;48.714;8.994;2022-11-10T02:04:10;9.50;1.00
6662;DHT22;3367;48.714;8.994;2022-11-10T02:06:41;9.40;1.00
6662;DHT22;3367;48.714;8.994;2022-11-10T02:09:09;9.40;1.00
6662;DHT22;3367;48.714;8.994;2022-11-10T02:11:36;9.30;1.00
6662;DHT22;3367;48.714;8.994;2022-11-10T02:14:04;9.20;1.00
6662;DHT22;3367;48.714;8.994;2022-11-10T02:16:31;9.10;1.00
6662;DHT22;3367;48.714;8.994;2022-11-10T02:19:11;9.10;1.00
6662;DHT22;3367;48.714;8.994;2022-11-10T02:21:40;9.00;1.00
6662;DHT22;3367;48.714;8.994;2022-11-10T02:24:07;8.90;1.00
6662;DHT22;3367;48.714;8.994;2022-11-10T02:26:36;8.80;1.00
6662;DHT22;3367;48.714;8.994;2022-11-10T02:29:03;8.80;1.00
6662;DHT22;3367;48.714;8.994;2022-11-10T02:31:30;8.80;1.00
6662;DHT22;3367;48.714;8.994;2022-11-10T02:33:57;8.80;1.00
6662;DHT22;3367;48.714;8.994;2022-11-10T02:36:24;8.60;1.00
6662;DHT22;3367;48.714;8.994;2022-11-10T02:38:52;8.60;1.00
6662;DHT22;3367;48.714;8.994;2022-11-10T02:41:18;8.50;1.00
6662;DHT22;3367;48.714;8.994;2022-11-10T02:43:45;8.40;1.00
6662;DHT22;3367;48.714;8.994;2022-11-10T02:46:12;8.40;1.00
6662;DHT22;3367;48.714;8.994;2022-11-10T02:48:39;8.30;1.00
6662;DHT22;3367;48.714;8.994;2022-11-10T02:51:05;8.20;1.00
6662;DHT22;3367;48.714;8.994;2022-11-10T02:53:32;8.20;1.00
6662;DHT22;3367;48.714;8.994;2022-11-10T02:56:00;8.20;1.00
6662;DHT22;3367;48.714;8.994;2022-11-10T02:58:27;8.20;1.00
6662;DHT22;3367;48.714;8.994;2022-11-10T03:00:54;8.10;1.00
6662;DHT22;3367;48.714;8.994;2022-11-10T03:03:21;8.10;1.00
6662;DHT22;3367;48.714;8.994;2022-11-10T03:05:47;8.10;1.00
6662;DHT22;3367;48.714;8.994;2022-11-10T03:08:14;8.00;1.00
6662;DHT22;3367;48.714;8.994;2022-11-10T03:10:41;8.10;1.00
6662;DHT22;3367;48.714;8.994;2022-11-10T03:13:09;8.00;1.00
6662;DHT22;3367;48.714;8.994;2022-11-10T03:15:36;8.00;1.00
6662;DHT22;3367;48.714;8.994;2022-11-10T03:18:03;8.00;1.00
6662;DHT22;3367;48.714;8.994;2022-11-10T03:20:30;8.10;1.00
6662;DHT22;3367;48.714;8.994;2022-11-10T03:23:01;8.00;1.00
6662;DHT22;3367;48.714;8.994;2022-11-10T03:25:28;7.90;1.00
6662;DHT22;3367;48.714;8.994;2022-11-10T03:27:55;7.90;1.00
6662;DHT22;3367;48.714;8.994;2022-11-10T03:30:23;7.70;1.00
6662;DHT22;3367;48.714;8.994;2022-11-10T03:32:50;7.60;1.00
6662;DHT22;3367;48.714;8.994;2022-11-10T03:35:17;7.50;1.00
6662;DHT22;3367;48.714;8.994;2022-11-10T03:37:44;7.50;1.00
6662;DHT22;3367;48.714;8.994;2022-11-10T03:40:11;7.40;1.00
6662;DHT22;3367;48.714;8.994;2022-11-10T03:42:41;7.30;1.00
6662;DHT22;3367;48.714;8.994;2022-11-10T03:45:08;7.20;1.00
6662;DHT22;3367;48.714;8.994;2022-11-10T03:47:36;7.10;1.00
6662;DHT22;3367;48.714;8.994;2022-11-10T03:50:04;7.10;1.00
6662;DHT22;3367;48.714;8.994;2022-11-10T03:52:31;7.10;1.00
6662;DHT22;3367;48.714;8.994;2022-11-10T03:54:58;7.10;1.00
6662;DHT22;3367;48.714;8.994;2022-11-10T03:57:25;7.00;1.00
6662;DHT22;3367;48.714;8.994;2022-11-10T03:59:51;7.00;1.00
6662;DHT22;3367;48.714;8.994;2022-11-10T04:02:18;7.00;1.00
6662;DHT22;3367;48.714;8.994;2022-11-10T04:04:46;6.90;1.00
6662;DHT22;3367;48.714;8.994;2022-11-10T04:07:32;6.90;1.00
6662;DHT22;3367;48.714;8.994;2022-11-10T04:10:17;6.90;1.00
6662;DHT22;3367;48.714;8.994;2022-11-10T04:12:44;6.80;1.00
6662;DHT22;3367;48.714;8.994;2022-11-10T04:15:37;6.70;1.00
6662;DHT22;3367;48.714;8.994;2022-11-10T04:18:11;6.70;1.00
6662;DHT22;3367;48.714;8.994;2022-11-10T04:20:52;6.70;1.00
6662;DHT22;3367;48.714;8.994;2022-11-10T04:23:19;6.70;1.00
6662;DHT22;3367;48.714;8.994;2022-11-10T04:25:54;6.60;1.00
6662;DHT22;3367;48.714;8.994;2022-11-10T04:28:38;6.70;1.00
6662;DHT22;3367;48.714;8.994;2022-11-10T04:31:05;6.50;1.00
6662;DHT22;3367;48.714;8.994;2022-11-10T04:33:33;6.50;1.00
6662;DHT22;3367;48.714;8.994;2022-11-10T04:36:02;6.40;1.00
6662;DHT22;3367;48.714;8.994;2022-11-10T04:38:29;6.40;1.00
6662;DHT22;3367;48.714;8.994;2022-11-10T04:40:55;6.40;1.00
6662;DHT22;3367;48.714;8.994;2022-11-10T04:43:22;6.40;1.00
6662;DHT22;3367;48.714;8.994;2022-11-10T04:45:49;6.30;1.00
6662;DHT22;3367;48.714;8.994;2022-11-10T04:48:16;6.20;1.00
6662;DHT22;3367;48.714;8.994;2022-11-10T04:50:43;6.20;1.00
6662;DHT22;3367;48.714;8.994;2022-11-10T04:53:11;6.10;1.00
6662;DHT22;3367;48.714;8.994;2022-11-10T04:55:39;6.10;1.00
6662;DHT22;3367;48.714;8.994;2022-11-10T04:58:06;6.00;1.00
6662;DHT22;3367;48.714;8.994;2022-11-10T05:00:34;6.10;1.00
6662;DHT22;3367;48.714;8.994;2022-11-10T05:03:02;5.90;1.00
6662;DHT22;3367;48.714;8.994;2022-11-10T05:05:30;5.90;1.00
6662;DHT22;3367;48.714;8.994;2022-11-10T05:07:57;5.90;1.00
6662;DHT22;3367;48.714;8.994;2022-11-10T05:10:26;5.90;1.00
6662;DHT22;3367;48.714;8.994;2022-11-10T05:12:53;5.90;1.00
6662;DHT22;3367;48.714;8.994;2022-11-10T05:15:20;5.90;1.00
6662;DHT22;3367;48.714;8.994;2022-11-10T05:17:48;5.80;1.00
6662;DHT22;3367;48.714;8.994;2022-11-10T05:20:15;5.80;1.00
6662;DHT22;3367;48.714;8.994;2022-11-10T05:22:43;5.80;1.00
6662;DHT22;3367;48.714;8.994;2022-11-10T05:25:11;5.70;1.00
6662;DHT22;3367;48.714;8.994;2022-11-10T05:27:39;5.60;1.00
6662;DHT22;3367;48.714;8.994;2022-11-10T05:30:07;5.60;1.00
6662;DHT22;3367;48.714;8.994;2022-11-10T05:32:35;5.60;1.00
6662;DHT22;3367;48.714;8.994;2022-11-10T05:35:03;5.60;1.00
6662;DHT22;3367;48.714;8.994;2022-11-10T05:37:29;5.50;1.00
6662;DHT22;3367;48.714;8.994;2022-11-10T05:39:56;5.50;1.00
6662;DHT22;3367;48.714;8.994;2022-11-10T05:42:23;5.50;1.00
6662;DHT22;3367;48.714;8.994;2022-11-10T05:44:51;5.50;1.00
6662;DHT22;3367;48.714;8.994;2022-11-10T05:47:18;5.50;1.00
6662;DHT22;3367;48.714;8.994;2022-11-10T05:49:45;5.40;1.00
6662;DHT22;3367;48.714;8.994;2022-11-10T05:52:12;5.30;1.00
6662;DHT22;3367;48.714;8.994;2022-11-10T05:54:39;5.30;1.00
6662;DHT22;3367;48.714;8.994;2022-11-10T05:57:06;5.30;1.00
6662;DHT22;3367;48.714;8.994;2022-11-10T05:59:33;5.30;1.00
6662;DHT22;3367;48.714;8.994;2022-11-10T06:02:01;5.30;1.00
6662;DHT22;3367;48.714;8.994;2022-11-10T06:04:27;5.30;1.00
6662;DHT22;3367;48.714;8.994;2022-11-10T06:06:54;5.30;1.00
6662;DHT22;3367;48.714;8.994;2022-11-10T06:09:21;5.30;1.00
6662;DHT22;3367;48.714;8.994;2022-11-10T06:11:47;5.20;1.00
6662;DHT22;3367;48.714;8.994;2022-11-10T06:14:14;5.20;1.00
6662;DHT22;3367;48.714;8.994;2022-11-10T06:16:41;5.20;1.00
6662;DHT22;3367;48.714;8.994;2022-11-10T06:19:09;5.20;1.00
6662;DHT22;3367;48.714;8.994;2022-11-10T06:21:36;5.30;1.00
6662;DHT22;3367;48.714;8.994;2022-11-10T06:24:03;5.20;1.00
6662;DHT22;3367;48.714;8.994;2022-11-10T06:26:30;5.30;1.00
6662;DHT22;3367;48.714;8.994;2022-11-10T06:28:56;5.30;1.00
6662;DHT22;3367;48.714;8.994;2022-11-10T06:31:23;5.30;1.00
6662;DHT22;3367;48.714;8.994;2022-11-10T06:33:50;5.40;1.00
6662;DHT22;3367;48.714;8.994;2022-11-10T06:36:18;5.40;1.00
6662;DHT22;3367;48.714;8.994;2022-11-10T06:38:44;5.40;1.00
6662;DHT22;3367;48.714;8.994;2022-11-10T06:41:11;5.40;1.00
6662;DHT22;3367;48.714;8.994;2022-11-10T06:43:38;5.50;1.00
6662;DHT22;3367;48.714;8.994;2022-11-10T06:46:05;5.40;1.00
6662;DHT22;3367;48.714;8.994;2022-11-10T06:48:31;5.50;1.00
6662;DHT22;3367;48.714;8.994;2022-11-10T06:50:59;5.50;1.00
6662;DHT22;3367;48.714;8.994;2022-11-10T06:53:27;5.60;1.00
6662;DHT22;3367;48.714;8.994;2022-11-10T06:55:54;5.70;1.00
6662;DHT22;3367;48.714;8.994;2022-11-10T06:58:21;5.70;1.00
6662;DHT22;3367;48.714;8.994;2022-11-10T07:00:47;5.80;1.00
6662;DHT22;3367;48.714;8.994;2022-11-10T07:03:14;5.90;1.00
6662;DHT22;3367;48.714;8.994;2022-11-10T07:05:41;5.90;1.00
6662;DHT22;3367;48.714;8.994;2022-11-10T07:08:10;5.90;1.00
6662;DHT22;3367;48.714;8.994;2022-11-10T07:10:41;5.90;1.00
6662;DHT22;3367;48.714;8.994;2022-11-10T07:13:10;6.00;1.00
6662;DHT22;3367;48.714;8.994;2022-11-10T07:15:37;6.10;1.00
6662;DHT22;3367;48.714;8.994;2022-11-10T07:18:03;6.20;1.00
6662;DHT22;3367;48.714;8.994;2022-11-10T07:20:31;6.20;1.00
6662;DHT22;3367;48.714;8.994;2022-11-10T07:22:58;6.30;1.00
6662;DHT22;3367;48.714;8.994;2022-11-10T07:25:25;6.30;1.00
6662;DHT22;3367;48.714;8.994;2022-11-10T07:27:54;6.40;1.00
6662;DHT22;3367;48.714;8.994;2022-11-10T07:30:22;6.50;1.00
6662;DHT22;3367;48.714;8.994;2022-11-10T07:32:57;6.50;1.00
6662;DHT22;3367;48.714;8.994;2022-11-10T07:35:23;6.60;1.00
6662;DHT22;3367;48.714;8.994;2022-11-10T07:37:52;6.60;1.00
6662;DHT22;3367;48.714;8.994;2022-11-10T07:40:19;6.60;1.00
6662;DHT22;3367;48.714;8.994;2022-11-10T07:42:46;6.70;1.00
6662;DHT22;3367;48.714;8.994;2022-11-10T07:45:14;6.70;1.00
6662;DHT22;3367;48.714;8.994;2022-11-10T07:47:41;6.80;1.00
6662;DHT22;3367;48.714;8.994;2022-11-10T07:50:08;6.80;1.00
6662;DHT22;3367;48.714;8.994;2022-11-10T07:52:35;6.90;1.00
6662;DHT22;3367;48.714;8.994;2022-11-10T07:55:02;7.00;1.00
6662;DHT22;3367;48.714;8.994;2022-11-10T07:57:29;7.00;1.00
6662;DHT22;3367;48.714;8.994;2022-11-10T07:59:56;7.10;1.00
6662;DHT22;3367;48.714;8.994;2022-11-10T08:02:24;7.20;1.00
6662;DHT22;3367;48.714;8.994;2022-11-10T08:04:51;7.40;1.00
6662;DHT22;3367;48.714;8.994;2022-11-10T08:07:17;7.40;1.00
6662;DHT22;3367;48.714;8.994;2022-11-10T08:09:44;7.50;1.00
6662;DHT22;3367;48.714;8.994;2022-11-10T08:12:11;7.60;1.00
6662;DHT22;3367;48.714;8.994;2022-11-10T08:14:37;7.60;1.00
6662;DHT22;3367;48.714;8.994;2022-11-10T08:17:04;7.60;1.00
6662;DHT22;3367;48.714;8.994;2022-11-10T08:19:32;7.70;1.00
6662;DHT22;3367;48.714;8.994;2022-11-10T08:21:59;7.80;1.00
6662;DHT22;3367;48.714;8.994;2022-11-10T08:24:26;7.80;1.00
6662;DHT22;3367;48.714;8.994;2022-11-10T08:26:52;8.00;1.00
6662;DHT22;3367;48.714;8.994;2022-11-10T08:29:19;8.10;1.00
6662;DHT22;3367;48.714;8.994;2022-11-10T08:31:46;8.20;1.00
6662;DHT22;3367;48.714;8.994;2022-11-10T08:34:13;8.40;99.90
6662;DHT22;3367;48.714;8.994;2022-11-10T08:36:41;8.40;99.90
6662;DHT22;3367;48.714;8.994;2022-11-10T08:39:08;8.50;99.90
6662;DHT22;3367;48.714;8.994;2022-11-10T08:41:36;8.70;99.90
6662;DHT22;3367;48.714;8.994;2022-11-10T08:44:03;8.70;99.90
6662;DHT22;3367;48.714;8.994;2022-11-10T08:46:30;8.80;1.00
6662;DHT22;3367;48.714;8.994;2022-11-10T08:48:57;8.80;1.00
6662;DHT22;3367;48.714;8.994;2022-11-10T08:51:24;8.90;1.00
6662;DHT22;3367;48.714;8.994;2022-11-10T08:53:52;9.00;1.00
6662;DHT22;3367;48.714;8.994;2022-11-10T08:56:19;9.10;99.90
6662;DHT22;3367;48.714;8.994;2022-11-10T08:58:45;9.20;29.40
6662;DHT22;3367;48.714;8.994;2022-11-10T09:01:12;9.30;1.00
6662;DHT22;3367;48.714;8.994;2022-11-10T09:03:39;9.40;1.00
6662;DHT22;3367;48.714;8.994;2022-11-10T09:06:05;9.40;99.90
6662;DHT22;3367;48.714;8.994;2022-11-10T09:08:32;9.60;67.90
6662;DHT22;3367;48.714;8.994;2022-11-10T09:11:02;9.70;1.00
6662;DHT22;3367;48.714;8.994;2022-11-10T09:13:29;9.80;1.00
6662;DHT22;3367;48.714;8.994;2022-11-10T09:15:59;9.90;99.90
6662;DHT22;3367;48.714;8.994;2022-11-10T09:18:25;10.00;1.00
6662;DHT22;3367;48.714;8.994;2022-11-10T09:20:52;10.00;1.00
6662;DHT22;3367;48.714;8.994;2022-11-10T09:23:19;10.10;1.00
6662;DHT22;3367;48.714;8.994;2022-11-10T09:25:49;10.20;99.90
6662;DHT22;3367;48.714;8.994;2022-11-10T09:28:17;10.40;62.90
6662;DHT22;3367;48.714;8.994;2022-11-10T09:30:46;10.60;99.90
6662;DHT22;3367;48.714;8.994;2022-11-10T09:33:13;10.60;1.00
6662;DHT22;3367;48.714;8.994;2022-11-10T09:35:39;10.80;1.00
6662;DHT22;3367;48.714;8.994;2022-11-10T09:38:07;10.90;99.90
6662;DHT22;3367;48.714;8.994;2022-11-10T09:40:46;11.00;25.20
6662;DHT22;3367;48.714;8.994;2022-11-10T09:43:22;11.10;99.90
6662;DHT22;3367;48.714;8.994;2022-11-10T09:45:53;11.20;99.90
6662;DHT22;3367;48.714;8.994;2022-11-10T09:48:24;11.30;1.00
6662;DHT22;3367;48.714;8.994;2022-11-10T09:50:54;11.40;1.00
6662;DHT22;3367;48.714;8.994;2022-11-10T09:53:24;11.50;1.00
6662;DHT22;3367;48.714;8.994;2022-11-10T09:55:55;11.50;99.90
6662;DHT22;3367;48.714;8.994;2022-11-10T09:58:30;11.60;99.90
6662;DHT22;3367;48.714;8.994;2022-11-10T10:01:06;11.60;99.90
6662;DHT22;3367;48.714;8.994;2022-11-10T10:03:43;11.70;99.90
6662;DHT22;3367;48.714;8.994;2022-11-10T10:06:12;11.90;96.30
6662;DHT22;3367;48.714;8.994;2022-11-10T10:08:48;11.90;44.10
6662;DHT22;3367;48.714;8.994;2022-11-10T10:11:26;11.90;99.90
6662;DHT22;3367;48.714;8.994;2022-11-10T10:14:15;12.00;27.50
6662;DHT22;3367;48.714;8.994;2022-11-10T10:16:49;12.10;31.40
6662;DHT22;3367;48.714;8.994;2022-11-10T10:19:26;12.10;1.00
6662;DHT22;3367;48.714;8.994;2022-11-10T10:22:11;12.20;1.00
6662;DHT22;3367;48.714;8.994;2022-11-10T10:24:42;12.30;1.00
6662;DHT22;3367;48.714;8.994;2022-11-10T10:27:14;12.30;1.00
6662;DHT22;3367;48.714;8.994;2022-11-10T10:29:45;12.30;1.00
6662;DHT22;3367;48.714;8.994;2022-11-10T10:32:13;12.30;1.00
6662;DHT22;3367;48.714;8.994;2022-11-10T10:34:41;12.40;1.00
6662;DHT22;3367;48.714;8.994;2022-11-10T10:37:20;12.40;1.00
6662;DHT22;3367;48.714;8.994;2022-11-10T10:39:49;12.40;1.00
6662;DHT22;3367;48.714;8.994;2022-11-10T10:42:26;12.50;1.00
6662;DHT22;3367;48.714;8.994;2022-11-10T10:45:13;12.50;1.00
6662;DHT22;3367;48.714;8.994;2022-11-10T10:47:41;12.50;1.00
6662;DHT22;3367;48.714;8.994;2022-11-10T10:50:27;12.50;1.00
6662;DHT22;3367;48.714;8.994;2022-11-10T10:53:11;12.60;1.00
6662;DHT22;3367;48.714;8.994;2022-11-10T10:55:43;12.60;1.00
6662;DHT22;3367;48.714;8.994;2022-11-10T10:58:22;12.80;1.00
6662;DHT22;3367;48.714;8.994;2022-11-10T11:00:53;12.80;1.00
6662;DHT22;3367;48.714;8.994;2022-11-10T11:03:26;12.90;1.00
6662;DHT22;3367;48.714;8.994;2022-11-10T11:06:02;12.80;99.90
6662;DHT22;3367;48.714;8.994;2022-11-10T11:08:31;12.80;1.00
6662;DHT22;3367;48.714;8.994;2022-11-10T11:11:06;12.80;1.00
6662;DHT22;3367;48.714;8.994;2022-11-10T11:13:33;12.90;1.00
6662;DHT22;3367;48.714;8.994;2022-11-10T11:16:02;12.90;1.00
6662;DHT22;3367;48.714;8.994;2022-11-10T11:18:31;12.90;99.90
6662;DHT22;3367;48.714;8.994;2022-11-10T11:21:01;12.90;99.90
6662;DHT22;3367;48.714;8.994;2022-11-10T11:23:48;13.00;1.00
6662;DHT22;3367;48.714;8.994;2022-11-10T11:26:20;13.10;99.90
6662;DHT22;3367;48.714;8.994;2022-11-10T11:28:55;13.00;99.90
6662;DHT22;3367;48.714;8.994;2022-11-10T11:31:35;13.00;99.90
6662;DHT22;3367;48.714;8.994;2022-11-10T11:34:11;13.10;1.00
6662;DHT22;3367;48.714;8.994;2022-11-10T11:36:47;13.00;99.90
6662;DHT22;3367;48.714;8.994;2022-11-10T11:39:27;13.10;99.90
6662;DHT22;3367;48.714;8.994;2022-11-10T11:42:00;13.10;99.90
6662;DHT22;3367;48.714;8.994;2022-11-10T11:44:44;13.20;99.90
6662;DHT22;3367;48.714;8.994;2022-11-10T11:47:28;13.30;99.90
6662;DHT22;3367;48.714;8.994;2022-11-10T11:50:11;13.30;99.90
6662;DHT22;3367;48.714;8.994;2022-11-10T11:52:46;13.40;99.90
6662;DHT22;3367;48.714;8.994;2022-11-10T11:55:20;13.40;99.90
6662;DHT22;3367;48.714;8.994;2022-11-10T11:57:59;13.40;99.90
6662;DHT22;3367;48.714;8.994;2022-11-10T12:00:35;13.20;99.90
6662;DHT22;3367;48.714;8.994;2022-11-10T12:03:19;13.10;99.90
6662;DHT22;3367;48.714;8.994;2022-11-10T12:06:09;13.10;99.90
6662;DHT22;3367;48.714;8.994;2022-11-10T12:08:48;13.10;99.90
6662;DHT22;3367;48.714;8.994;2022-11-10T12:11:22;13.20;99.90
6662;DHT22;3367;48.714;8.994;2022-11-10T12:13:55;13.20;99.90
6662;DHT22;3367;48.714;8.994;2022-11-10T12:16:26;13.20;99.90
6662;DHT22;3367;48.714;8.994;2022-11-10T12:19:02;13.20;99.90
6662;DHT22;3367;48.714;8.994;2022-11-10T12:21:38;13.10;99.90
6662;DHT22;3367;48.714;8.994;2022-11-10T12:24:18;13.20;99.90
6662;DHT22;3367;48.714;8.994;2022-11-10T12:26:54;13.20;99.90
6662;DHT22;3367;48.714;8.994;2022-11-10T12:29:27;13.10;99.90
6662;DHT22;3367;48.714;8.994;2022-11-10T12:32:00;13.20;99.90
6662;DHT22;3367;48.714;8.994;2022-11-10T12:34:33;13.30;99.90
6662;DHT22;3367;48.714;8.994;2022-11-10T12:37:03;13.30;99.90
6662;DHT22;3367;48.714;8.994;2022-11-10T12:39:39;13.30;99.90
6662;DHT22;3367;48.714;8.994;2022-11-10T12:42:11;13.30;99.90
6662;DHT22;3367;48.714;8.994;2022-11-10T12:44:53;13.30;99.90
6662;DHT22;3367;48.714;8.994;2022-11-10T12:47:21;13.40;99.90
6662;DHT22;3367;48.714;8.994;2022-11-10T12:50:00;13.50;99.90
6662;DHT22;3367;48.714;8.994;2022-11-10T12:52:33;13.40;99.90
6662;DHT22;3367;48.714;8.994;2022-11-10T12:55:00;13.30;99.90
6662;DHT22;3367;48.714;8.994;2022-11-10T12:57:29;13.30;99.90
6662;DHT22;3367;48.714;8.994;2022-11-10T12:59:59;13.50;99.90
6662;DHT22;3367;48.714;8.994;2022-11-10T13:02:29;13.50;99.90
6662;DHT22;3367;48.714;8.994;2022-11-10T13:05:25;13.50;99.90
6662;DHT22;3367;48.714;8.994;2022-11-10T13:10:54;13.50;99.90
6662;DHT22;3367;48.714;8.994;2022-11-10T13:13:22;13.50;99.90
6662;DHT22;3367;48.714;8.994;2022-11-10T13:15:52;13.50;99.90
6662;DHT22;3367;48.714;8.994;2022-11-10T13:22:03;13.50;99.90
6662;DHT22;3367;48.714;8.994;2022-11-10T13:24:31;13.40;95.50
6662;DHT22;3367;48.714;8.994;2022-11-10T13:26:59;13.40;98.50
6662;DHT22;3367;48.714;8.994;2022-11-10T13:29:34;13.30;99.90
6662;DHT22;3367;48.714;8.994;2022-11-10T13:32:28;13.30;99.90
6662;DHT22;3367;48.714;8.994;2022-11-10T13:37:57;13.30;99.90
6662;DHT22;3367;48.714;8.994;2022-11-10T13:40:30;13.30;99.90
6662;DHT22;3367;48.714;8.994;2022-11-10T13:43:21;13.30;90.40
6662;DHT22;3367;48.714;8.994;2022-11-10T13:45:59;13.20;36.90
6662;DHT22;3367;48.714;8.994;2022-11-10T13:48:44;13.10;80.10
6662;DHT22;3367;48.714;8.994;2022-11-10T13:51:24;13.10;95.50
6662;DHT22;3367;48.714;8.994;2022-11-10T13:54:03;13.20;97.40
6662;DHT22;3367;48.714;8.994;2022-11-10T13:56:46;13.20;99.90
6662;DHT22;3367;48.714;8.994;2022-11-10T13:59:18;13.20;99.90
6662;DHT22;3367;48.714;8.994;2022-11-10T14:01:45;13.20;5.20
6662;DHT22;3367;48.714;8.994;2022-11-10T14:04:45;13.60;1.10
6662;DHT22;3367;48.714;8.994;2022-11-10T14:07:15;14.00;1.00
6662;DHT22;3367;48.714;8.994;2022-11-10T14:09:45;14.00;1.00
6662;DHT22;3367;48.714;8.994;2022-11-10T14:12:22;14.00;34.80
6662;DHT22;3367;48.714;8.994;2022-11-10T14:14:53;13.80;99.90
6662;DHT22;3367;48.714;8.994;2022-11-10T14:17:26;13.60;99.90
6662;DHT22;3367;48.714;8.994;2022-11-10T14:19:54;13.40;99.90
6662;DHT22;3367;48.714;8.994;2022-11-10T14:22:25;13.40;99.90
6662;DHT22;3367;48.714;8.994;2022-11-10T14:24:58;13.30;99.90
6662;DHT22;3367;48.714;8.994;2022-11-10T14:27:27;13.20;99.90
6662;DHT22;3367;48.714;8.994;2022-11-10T14:32:56;12.90;99.90
6662;DHT22;3367;48.714;8.994;2022-11-10T14:35:27;12.80;99.90
6662;DHT22;3367;48.714;8.994;2022-11-10T14:37:58;12.70;99.90
6662;DHT22;3367;48.714;8.994;2022-11-10T14:40:27;12.80;78.80
6662;DHT22;3367;48.714;8.994;2022-11-10T14:42:54;12.60;99.90
6662;DHT22;3367;48.714;8.994;2022-11-10T14:45:23;12.60;99.90
6662;DHT22;3367;48.714;8.994;2022-11-10T14:47:51;12.50;99.90
6662;DHT22;3367;48.714;8.994;2022-11-10T14:50:21;12.50;99.90
6662;DHT22;3367;48.714;8.994;2022-11-10T14:52:50;12.50;99.90
6662;DHT22;3367;48.714;8.994;2022-11-10T14:55:20;12.40;99.90
6662;DHT22;3367;48.714;8.994;2022-11-10T14:57:51;12.40;99.90
6662;DHT22;3367;48.714;8.994;2022-11-10T15:00:22;12.30;99.90
6662;DHT22;3367;48.714;8.994;2022-11-10T15:02:52;12.20;99.90
6662;DHT22;3367;48.714;8.994;2022-11-10T15:05:19;12.20;99.90
6662;DHT22;3367;48.714;8.994;2022-11-10T15:07:46;12.10;99.90
6662;DHT22;3367;48.714;8.994;2022-11-10T15:10:16;12.00;99.90
6662;DHT22;3367;48.714;8.994;2022-11-10T15:12:43;12.00;99.90
6662;DHT22;3367;48.714;8.994;2022-11-10T15:15:19;11.90;99.90
6662;DHT22;3367;48.714;8.994;2022-11-10T15:17:48;11.80;1.00
6662;DHT22;3367;48.714;8.994;2022-11-10T15:20:32;11.70;1.00
6662;DHT22;3367;48.714;8.994;2022-11-10T15:23:01;11.50;1.00
6662;DHT22;3367;48.714;8.994;2022-11-10T15:25:34;11.40;1.00
6662;DHT22;3367;48.714;8.994;2022-11-10T15:28:04;11.30;1.00
6662;DHT22;3367;48.714;8.994;2022-11-10T15:30:33;11.10;1.00
6662;DHT22;3367;48.714;8.994;2022-11-10T15:33:07;11.00;1.00
6662;DHT22;3367;48.714;8.994;2022-11-10T15:35:35;10.90;1.00
6662;DHT22;3367;48.714;8.994;2022-11-10T15:38:04;10.80;1.00
6662;DHT22;3367;48.714;8.994;2022-11-10T15:40:34;10.70;1.00
6662;DHT22;3367;48.714;8.994;2022-11-10T15:43:14;10.60;1.00
6662;DHT22;3367;48.714;8.994;2022-11-10T15:45:43;10.50;1.00
6662;DHT22;3367;48.714;8.994;2022-11-10T15:48:12;10.30;92.90
6662;DHT22;3367;48.714;8.994;2022-11-10T15:50:40;10.20;99.90
6662;DHT22;3367;48.714;8.994;2022-11-10T15:53:11;10.10;99.90
6662;DHT22;3367;48.714;8.994;2022-11-10T15:55:39;10.00;99.90
6662;DHT22;3367;48.714;8.994;2022-11-10T15:58:11;9.80;1.00
6662;DHT22;3367;48.714;8.994;2022-11-10T16:00:38;9.70;1.00
6662;DHT22;3367;48.714;8.994;2022-11-10T16:03:09;9.70;1.00
6662;DHT22;3367;48.714;8.994;2022-11-10T16:05:36;9.70;1.00
6662;DHT22;3367;48.714;8.994;2022-11-10T16:08:09;9.60;1.00
6662;DHT22;3367;48.714;8.994;2022-11-10T16:10:36;9.70;36.20
6662;DHT22;3367;48.714;8.994;2022-11-10T16:13:03;9.70;99.90
6662;DHT22;3367;48.714;8.994;2022-11-10T16:15:30;9.60;1.00
6662;DHT22;3367;48.714;8.994;2022-11-10T16:17:58;9.60;13.40
6662;DHT22;3367;48.714;8.994;2022-11-10T16:20:26;9.60;1.00
6662;DHT22;3367;48.714;8.994;2022-11-10T16:22:52;9.50;1.00
6662;DHT22;3367;48.714;8.994;2022-11-10T16:25:19;9.40;91.90
6662;DHT22;3367;48.714;8.994;2022-11-10T16:27:46;9.30;99.90
6662;DHT22;3367;48.714;8.994;2022-11-10T16:30:13;9.20;1.00
6662;DHT22;3367;48.714;8.994;2022-11-10T16:32:40;9.10;1.00
6662;DHT22;3367;48.714;8.994;2022-11-10T16:35:11;8.90;1.00
6662;DHT22;3367;48.714;8.994;2022-11-10T16:37:40;8.80;1.00
6662;DHT22;3367;48.714;8.994;2022-11-10T16:40:12;8.70;1.00
6662;DHT22;3367;48.714;8.994;2022-11-10T16:42:39;8.60;99.90
6662;DHT22;3367;48.714;8.994;2022-11-10T16:45:12;8.50;99.90
6662;DHT22;3367;48.714;8.994;2022-11-10T16:47:40;8.50;1.00
6662;DHT22;3367;48.714;8.994;2022-11-10T16:50:25;8.30;1.00
6662;DHT22;3367;48.714;8.994;2022-11-10T16:52:55;8.20;99.90